createdAt,value
2023-05-22T00:02:57.209Z,19.26
2023-05-22T00:06:00.139Z,19.23
2023-05-22T00:09:01.751Z,19.15
2023-05-22T00:12:03.430Z,19.10
2023-05-22T00:15:05.962Z,18.97
2023-05-22T00:18:08.254Z,18.92
2023-05-22T00:21:10.679Z,18.83
2023-05-22T00:24:12.299Z,18.76
2023-05-22T00:27:13.721Z,18.73
2023-05-22T00:30:15.242Z,18.70
2023-05-22T00:33:16.705Z,18.69
2023-05-22T00:36:18.756Z,18.68
2023-05-22T00:39:20.259Z,18.70
2023-05-22T00:42:23.020Z,18.72
2023-05-22T00:45:24.675Z,18.72
2023-05-22T00:48:26.782Z,18.73
2023-05-22T00:51:29.557Z,18.63
2023-05-22T00:54:32.423Z,18.68
2023-05-22T00:57:33.896Z,18.70
2023-05-22T01:00:36.890Z,18.64
2023-05-22T01:03:44.544Z,18.66
2023-05-22T01:06:47.572Z,18.68
2023-05-22T01:09:49.096Z,18.54
2023-05-22T01:13:01.174Z,18.51
2023-05-22T01:16:14.766Z,18.51
2023-05-22T01:19:54.036Z,18.40
2023-05-22T01:23:13.478Z,18.32
2023-05-22T01:26:28.960Z,18.29
2023-05-22T01:29:42.335Z,18.18
2023-05-22T01:32:47.641Z,18.19
2023-05-22T01:35:54.024Z,18.16
2023-05-22T01:38:56.408Z,18.13
2023-05-22T01:41:58.310Z,18.02
2023-05-22T01:44:59.771Z,17.88
2023-05-22T01:48:01.242Z,17.91
2023-05-22T01:51:09.187Z,17.87
2023-05-22T01:54:36.945Z,17.84
2023-05-22T01:58:00.197Z,17.92
2023-05-22T02:01:03.513Z,17.93
2023-05-22T02:04:06.479Z,17.85
2023-05-22T02:07:12.423Z,17.81
2023-05-22T02:10:16.514Z,17.78
2023-05-22T02:13:18.512Z,17.74
2023-05-22T02:16:22.074Z,17.73
2023-05-22T02:19:24.580Z,17.73
2023-05-22T02:22:26.655Z,17.73
2023-05-22T02:25:28.169Z,17.71
2023-05-22T02:28:29.891Z,17.62
2023-05-22T02:31:31.377Z,17.56
2023-05-22T02:34:32.986Z,17.61
2023-05-22T02:37:34.501Z,17.53
2023-05-22T02:40:35.995Z,17.59
2023-05-22T02:43:37.481Z,17.52
2023-05-22T02:46:38.977Z,17.43
2023-05-22T02:49:40.692Z,17.32
2023-05-22T02:52:42.477Z,17.31
2023-05-22T02:55:44.000Z,17.25
2023-05-22T02:58:45.553Z,17.18
2023-05-22T03:01:48.389Z,17.18
2023-05-22T03:04:50.075Z,17.16
2023-05-22T03:07:52.754Z,17.14
2023-05-22T03:10:54.501Z,17.13
2023-05-22T03:13:56.437Z,17.09
2023-05-22T03:16:58.881Z,17.12
2023-05-22T03:20:00.422Z,17.09
2023-05-22T03:23:01.917Z,17.11
2023-05-22T03:26:03.387Z,17.08
2023-05-22T03:29:09.339Z,17.03
2023-05-22T03:32:14.444Z,17.04
2023-05-22T03:35:19.602Z,17.07
2023-05-22T03:38:21.153Z,17.09
2023-05-22T03:41:22.584Z,17.14
2023-05-22T03:44:24.426Z,17.11
2023-05-22T03:47:25.978Z,17.20
2023-05-22T03:50:27.526Z,17.22
2023-05-22T03:53:29.298Z,17.21
2023-05-22T03:56:30.761Z,17.26
2023-05-22T03:59:32.248Z,17.30
2023-05-22T04:02:33.766Z,17.31
2023-05-22T04:05:35.417Z,17.32
2023-05-22T04:08:37.006Z,17.37
2023-05-22T04:11:42.326Z,17.40
2023-05-22T04:14:43.846Z,17.40
2023-05-22T04:17:46.110Z,17.38
2023-05-22T04:20:47.770Z,17.37
2023-05-22T04:23:49.424Z,17.33
2023-05-22T04:26:50.868Z,17.32
2023-05-22T04:29:52.728Z,17.34
2023-05-22T04:32:54.219Z,17.39
2023-05-22T04:35:56.986Z,17.44
2023-05-22T04:39:00.291Z,17.45
2023-05-22T04:42:05.775Z,17.40
2023-05-22T04:45:09.076Z,17.41
2023-05-22T04:48:11.915Z,17.45
2023-05-22T04:51:14.375Z,17.48
2023-05-22T04:54:15.921Z,17.53
2023-05-22T04:57:21.249Z,17.57
2023-05-22T05:00:26.370Z,17.54
2023-05-22T05:03:28.564Z,17.55
2023-05-22T05:06:30.128Z,17.59
2023-05-22T05:09:31.776Z,17.63
2023-05-22T05:12:33.613Z,17.65
2023-05-22T05:15:35.373Z,17.72
2023-05-22T05:18:37.569Z,17.74
2023-05-22T05:21:39.562Z,17.82
2023-05-22T05:24:41.141Z,17.90
2023-05-22T05:27:42.669Z,17.93
2023-05-22T05:30:44.606Z,17.99
2023-05-22T05:34:05.727Z,18.14
2023-05-22T05:37:24.872Z,18.24
2023-05-22T05:40:27.552Z,18.20
2023-05-22T05:43:29.156Z,18.17
2023-05-22T05:46:36.395Z,18.12
2023-05-22T05:49:38.074Z,18.24
2023-05-22T05:52:41.318Z,18.28
2023-05-22T05:55:47.465Z,18.30
2023-05-22T05:58:49.327Z,18.31
2023-05-22T06:02:13.663Z,18.32
2023-05-22T06:05:19.004Z,18.49
2023-05-22T06:08:22.284Z,18.52
2023-05-22T06:11:24.074Z,18.70
2023-05-22T06:14:28.847Z,18.80
2023-05-22T06:17:30.342Z,18.87
2023-05-22T06:20:32.574Z,18.92
2023-05-22T06:23:34.165Z,19.06
2023-05-22T06:26:35.937Z,19.15
2023-05-22T06:29:37.569Z,19.21
2023-05-22T06:32:40.156Z,19.35
2023-05-22T06:35:43.071Z,19.51
2023-05-22T06:38:45.989Z,19.58
2023-05-22T06:42:07.814Z,19.71
2023-05-22T06:45:27.687Z,19.80
2023-05-22T06:48:49.361Z,19.96
2023-05-22T06:51:57.082Z,19.98
2023-05-22T06:55:04.435Z,20.11
2023-05-22T06:58:08.172Z,20.21
2023-05-22T07:01:10.977Z,20.19
2023-05-22T07:04:20.948Z,20.35
2023-05-22T07:07:31.155Z,20.53
2023-05-22T07:10:32.801Z,20.39
2023-05-22T07:13:34.612Z,20.54
2023-05-22T07:16:36.855Z,20.72
2023-05-22T07:19:38.768Z,20.78
2023-05-22T07:22:40.306Z,20.87
2023-05-22T07:25:42.984Z,20.84
2023-05-22T07:28:46.699Z,20.89
2023-05-22T07:31:49.419Z,20.80
2023-05-22T07:34:51.237Z,21.00
2023-05-22T07:37:53.151Z,21.15
2023-05-22T07:40:56.202Z,21.23
2023-05-22T07:43:59.034Z,21.33
2023-05-22T07:47:05.907Z,21.20
2023-05-22T07:50:09.264Z,21.46
2023-05-22T07:53:14.142Z,21.65
2023-05-22T07:56:18.166Z,21.78
2023-05-22T07:59:21.990Z,21.65
2023-05-22T08:02:24.774Z,21.53
2023-05-22T08:05:26.464Z,21.48
2023-05-22T08:08:28.897Z,21.45
2023-05-22T08:11:31.967Z,21.48
2023-05-22T08:14:33.537Z,21.72
2023-05-22T08:17:35.199Z,22.04
2023-05-22T08:20:38.208Z,22.30
2023-05-22T08:23:39.829Z,22.40
2023-05-22T08:26:43.060Z,22.41
2023-05-22T08:29:44.508Z,22.52
2023-05-22T08:32:45.966Z,22.58
2023-05-22T08:35:47.472Z,22.70
2023-05-22T08:38:48.918Z,22.87
2023-05-22T08:41:50.977Z,22.71
2023-05-22T08:44:52.904Z,23.02
2023-05-22T08:47:57.320Z,22.90
2023-05-22T08:51:04.719Z,23.06
2023-05-22T08:54:09.819Z,23.40
2023-05-22T08:57:11.653Z,23.41
2023-05-22T09:00:13.780Z,23.54
2023-05-22T09:03:15.761Z,23.81
2023-05-22T09:06:17.635Z,23.86
2023-05-22T09:09:19.541Z,23.92
2023-05-22T09:12:21.186Z,24.05
2023-05-22T09:15:22.633Z,24.06
2023-05-22T09:18:27.263Z,24.14
2023-05-22T09:21:30.641Z,23.99
2023-05-22T09:24:40.306Z,24.35
2023-05-22T09:27:45.698Z,24.33
2023-05-22T09:30:51.543Z,24.47
2023-05-22T09:33:53.971Z,24.17
2023-05-22T09:37:03.244Z,23.95
2023-05-22T09:40:11.027Z,24.09
2023-05-22T09:43:17.212Z,24.15
2023-05-22T09:46:18.775Z,23.93
2023-05-22T09:49:20.294Z,23.76
2023-05-22T09:52:23.524Z,23.92
2023-05-22T09:55:26.328Z,24.53
2023-05-22T09:58:31.074Z,24.77
2023-05-22T10:01:33.973Z,24.72
2023-05-22T10:04:36.738Z,24.87
2023-05-22T10:07:50.130Z,25.00
2023-05-22T10:10:53.106Z,24.67
2023-05-22T10:13:55.174Z,24.66
2023-05-22T10:17:01.986Z,24.94
2023-05-22T10:20:07.803Z,24.90
2023-05-22T10:23:14.920Z,25.09
2023-05-22T10:26:16.966Z,25.36
2023-05-22T10:29:42.028Z,25.69
2023-05-22T10:32:57.791Z,25.72
2023-05-22T10:36:04.700Z,25.95
2023-05-22T10:39:26.225Z,25.86
2023-05-22T10:42:34.312Z,25.77
2023-05-22T10:45:36.560Z,25.47
2023-05-22T10:48:47.767Z,25.53
2023-05-22T10:51:55.201Z,25.92
2023-05-22T10:55:00.124Z,25.78
2023-05-22T10:58:13.044Z,26.00
2023-05-22T11:01:16.364Z,26.24
2023-05-22T11:04:19.018Z,26.19
2023-05-22T11:07:25.567Z,26.16
2023-05-22T11:10:27.802Z,26.34
2023-05-22T11:13:29.612Z,26.25
2023-05-22T11:16:34.478Z,26.16
2023-05-22T11:19:36.573Z,26.27
2023-05-22T11:22:41.110Z,26.43
2023-05-22T11:25:42.763Z,26.90
2023-05-22T11:28:49.182Z,27.04
2023-05-22T11:31:50.825Z,26.96
2023-05-22T11:34:53.204Z,27.04
2023-05-22T11:37:56.117Z,27.29
2023-05-22T11:40:58.012Z,27.12
2023-05-22T11:44:00.422Z,27.16
2023-05-22T11:47:01.894Z,27.52
2023-05-22T11:50:06.547Z,27.63
2023-05-22T11:53:08.123Z,27.67
2023-05-22T11:56:09.602Z,27.64
2023-05-22T11:59:11.021Z,27.57
2023-05-22T12:02:13.588Z,27.73
2023-05-22T12:05:16.431Z,27.44
2023-05-22T12:08:18.191Z,27.67
2023-05-22T12:11:19.667Z,27.79
2023-05-22T12:14:26.222Z,27.81
2023-05-22T12:17:28.601Z,28.01
2023-05-22T12:20:31.060Z,28.17
2023-05-22T12:23:32.512Z,27.94
2023-05-22T12:26:34.574Z,28.23
2023-05-22T12:29:36.588Z,28.27
2023-05-22T12:32:39.819Z,28.51
2023-05-22T12:35:41.764Z,28.30
2023-05-22T12:38:43.472Z,28.39
2023-05-22T12:41:46.023Z,28.64
2023-05-22T12:44:47.673Z,28.35
2023-05-22T12:47:49.137Z,28.38
2023-05-22T12:50:50.663Z,28.45
2023-05-22T12:53:52.130Z,28.58
2023-05-22T12:56:53.539Z,28.10
2023-05-22T12:59:55.058Z,28.22
2023-05-22T13:02:56.631Z,28.54
2023-05-22T13:05:58.031Z,28.56
2023-05-22T13:09:02.365Z,28.46
2023-05-22T13:12:04.051Z,28.68
2023-05-22T13:15:06.617Z,28.80
2023-05-22T13:18:08.068Z,28.89
2023-05-22T13:21:09.612Z,28.87
2023-05-22T13:24:11.282Z,28.96
2023-05-22T13:27:13.058Z,29.12
2023-05-22T13:30:14.545Z,29.32
2023-05-22T13:33:16.290Z,29.54
2023-05-22T13:36:18.108Z,29.39
2023-05-22T13:39:19.595Z,29.43
2023-05-22T13:42:21.165Z,29.54
2023-05-22T13:45:22.818Z,29.61
2023-05-22T13:48:24.889Z,29.44
2023-05-22T13:51:26.374Z,29.63
2023-05-22T13:54:28.099Z,29.83
2023-05-22T13:57:29.538Z,30.00
2023-05-22T14:00:31.046Z,30.19
2023-05-22T14:03:32.619Z,30.31
2023-05-22T14:06:34.183Z,30.60
2023-05-22T14:09:35.616Z,30.55
2023-05-22T14:12:37.330Z,30.34
2023-05-22T14:15:38.985Z,30.39
2023-05-22T14:18:40.471Z,30.52
2023-05-22T14:21:41.896Z,30.31
2023-05-22T14:24:43.315Z,30.65
2023-05-22T14:27:44.838Z,30.54
2023-05-22T14:30:46.476Z,30.42
2023-05-22T14:33:47.927Z,30.43
2023-05-22T14:36:49.435Z,30.46
2023-05-22T14:39:50.898Z,30.42
2023-05-22T14:42:54.198Z,30.23
2023-05-22T14:45:57.835Z,30.53
2023-05-22T14:48:59.504Z,30.44
2023-05-22T14:52:01.512Z,30.28
2023-05-22T14:55:03.746Z,30.48
2023-05-22T14:58:05.192Z,30.59
2023-05-22T15:01:06.668Z,30.30
2023-05-22T15:04:08.841Z,30.19
2023-05-22T15:07:10.477Z,29.42
2023-05-22T15:10:12.438Z,29.41
2023-05-22T15:13:14.511Z,29.15
2023-05-22T15:16:16.387Z,28.84
2023-05-22T15:19:18.064Z,28.77
2023-05-22T15:22:20.232Z,28.24
2023-05-22T15:25:21.812Z,28.02
2023-05-22T15:28:23.259Z,27.74
2023-05-22T15:31:24.716Z,27.67
2023-05-22T15:34:26.132Z,27.57
2023-05-22T15:37:32.190Z,27.39
2023-05-22T15:40:34.103Z,27.50
2023-05-22T15:43:35.671Z,27.74
2023-05-22T15:46:37.297Z,27.75
2023-05-22T15:49:38.735Z,27.23
2023-05-22T15:52:40.480Z,26.88
2023-05-22T15:55:42.177Z,26.65
2023-05-22T15:58:43.852Z,26.69
2023-05-22T16:01:45.680Z,26.46
2023-05-22T16:04:48.589Z,26.52
2023-05-22T16:07:50.056Z,26.53
2023-05-22T16:10:51.568Z,26.51
2023-05-22T16:13:53.106Z,26.38
2023-05-22T16:16:55.121Z,26.31
2023-05-22T16:19:56.548Z,26.45
2023-05-22T16:22:57.969Z,26.52
2023-05-22T16:25:59.523Z,26.35
2023-05-22T16:29:01.091Z,26.12
2023-05-22T16:32:03.707Z,26.20
2023-05-22T16:35:06.199Z,25.86
2023-05-22T16:38:11.605Z,25.69
2023-05-22T16:41:13.105Z,25.67
2023-05-22T16:44:14.532Z,25.71
2023-05-22T16:47:15.957Z,25.97
2023-05-22T16:50:17.574Z,25.86
2023-05-22T16:53:19.618Z,25.44
2023-05-22T16:56:21.063Z,25.21
2023-05-22T16:59:22.541Z,24.88
2023-05-22T17:02:24.344Z,24.53
2023-05-22T17:05:25.943Z,24.73
2023-05-22T17:08:28.340Z,24.64
2023-05-22T17:11:30.023Z,24.65
2023-05-22T17:14:33.398Z,24.20
2023-05-22T17:17:34.883Z,24.32
2023-05-22T17:20:36.343Z,24.38
2023-05-22T17:23:40.174Z,24.27
2023-05-22T17:26:42.723Z,24.32
2023-05-22T17:29:44.187Z,24.32
2023-05-22T17:32:46.118Z,24.29
2023-05-22T17:35:47.788Z,24.30
2023-05-22T17:38:49.277Z,24.21
2023-05-22T17:41:51.167Z,24.31
2023-05-22T17:44:52.608Z,24.24
2023-05-22T17:47:54.168Z,24.22
2023-05-22T17:50:55.855Z,24.01
2023-05-22T17:53:58.897Z,23.95
2023-05-22T17:57:00.667Z,23.97
2023-05-22T18:00:05.222Z,23.89
2023-05-22T18:03:13.371Z,23.81
2023-05-22T18:06:14.934Z,23.72
2023-05-22T18:09:16.378Z,23.77
2023-05-22T18:12:31.219Z,23.66
2023-05-22T18:15:33.349Z,23.57
2023-05-22T18:18:34.847Z,23.53
2023-05-22T18:21:36.305Z,23.42
2023-05-22T18:24:38.222Z,23.45
2023-05-22T18:27:40.019Z,23.33
2023-05-22T18:30:44.513Z,23.37
2023-05-22T18:33:46.547Z,23.42
2023-05-22T18:36:50.800Z,23.43
2023-05-22T18:39:53.047Z,23.36
2023-05-22T18:42:54.795Z,23.29
2023-05-22T18:45:57.769Z,23.24
2023-05-22T18:48:59.249Z,23.20
2023-05-22T18:52:01.609Z,23.16
2023-05-22T18:55:03.163Z,23.21
2023-05-22T18:58:04.593Z,23.16
2023-05-22T19:01:06.128Z,23.11
2023-05-22T19:04:08.310Z,23.05
2023-05-22T19:07:09.819Z,22.96
2023-05-22T19:10:11.412Z,22.88
2023-05-22T19:13:12.959Z,22.82
2023-05-22T19:16:14.529Z,22.61
2023-05-22T19:19:16.166Z,22.62
2023-05-22T19:22:18.237Z,22.55
2023-05-22T19:25:21.023Z,22.52
2023-05-22T19:28:23.077Z,22.45
2023-05-22T19:31:28.241Z,22.44
2023-05-22T19:34:29.654Z,22.48
2023-05-22T19:37:31.106Z,22.51
2023-05-22T19:40:33.171Z,22.54
2023-05-22T19:43:34.804Z,22.58
2023-05-22T19:46:36.591Z,22.65
2023-05-22T19:49:38.106Z,22.62
2023-05-22T19:52:39.821Z,22.57
2023-05-22T19:55:41.463Z,22.59
2023-05-22T19:58:43.488Z,22.40
2023-05-22T20:01:44.946Z,22.24
2023-05-22T20:04:48.351Z,22.19
2023-05-22T20:07:49.944Z,22.12
2023-05-22T20:10:51.551Z,22.12
2023-05-22T20:13:54.362Z,22.42
2023-05-22T20:16:55.841Z,22.31
2023-05-22T20:20:01.309Z,22.29
2023-05-22T20:23:02.742Z,22.36
2023-05-22T20:26:04.830Z,22.29
2023-05-22T20:29:06.312Z,22.27
2023-05-22T20:32:08.644Z,22.20
2023-05-22T20:35:10.856Z,22.15
2023-05-22T20:38:14.151Z,22.03
2023-05-22T20:41:15.860Z,21.89
2023-05-22T20:44:23.418Z,21.80
2023-05-22T20:47:24.833Z,21.70
2023-05-22T20:50:26.285Z,21.74
2023-05-22T20:53:27.744Z,21.62
2023-05-22T20:56:29.928Z,21.55
2023-05-22T20:59:32.025Z,21.56
2023-05-22T21:02:33.479Z,21.41
2023-05-22T21:05:34.924Z,21.37
2023-05-22T21:08:36.382Z,21.42
2023-05-22T21:11:37.856Z,21.22
2023-05-22T21:14:40.128Z,21.15
2023-05-22T21:17:41.719Z,21.10
2023-05-22T21:20:43.426Z,21.09
2023-05-22T21:23:44.929Z,21.01
2023-05-22T21:26:46.557Z,21.16
2023-05-22T21:29:47.960Z,21.08
2023-05-22T21:32:49.425Z,20.96
2023-05-22T21:35:50.896Z,20.91
2023-05-22T21:38:53.076Z,20.82
2023-05-22T21:41:54.492Z,20.81
2023-05-22T21:44:55.920Z,20.71
2023-05-22T21:47:57.480Z,20.80
2023-05-22T21:50:59.011Z,20.78
2023-05-22T21:54:00.704Z,20.70
2023-05-22T21:57:02.135Z,20.61
2023-05-22T22:00:03.902Z,20.58
2023-05-22T22:03:06.713Z,20.52
2023-05-22T22:06:08.260Z,20.35
2023-05-22T22:09:09.739Z,20.19
2023-05-22T22:12:11.619Z,20.13
2023-05-22T22:15:13.113Z,20.01
2023-05-22T22:18:15.775Z,20.01
2023-05-22T22:21:26.423Z,20.07
2023-05-22T22:24:28.042Z,19.98
2023-05-22T22:27:29.510Z,19.98
2023-05-22T22:30:31.010Z,20.06
2023-05-22T22:33:32.846Z,19.96
2023-05-22T22:36:36.403Z,20.04
2023-05-22T22:39:38.257Z,20.08
2023-05-22T22:42:39.702Z,20.03
2023-05-22T22:45:41.619Z,19.89
2023-05-22T22:48:43.625Z,19.80
2023-05-22T22:51:45.070Z,19.87
2023-05-22T22:54:46.530Z,19.80
2023-05-22T22:57:49.827Z,19.77
2023-05-22T23:00:51.628Z,19.67
2023-05-22T23:03:53.145Z,19.69
2023-05-22T23:06:54.712Z,19.68
2023-05-22T23:09:56.135Z,19.75
2023-05-22T23:12:58.113Z,19.75
2023-05-22T23:15:59.762Z,19.75
2023-05-22T23:19:05.234Z,19.76
2023-05-22T23:22:06.805Z,19.74
2023-05-22T23:25:08.859Z,19.66
2023-05-22T23:28:10.280Z,19.59
2023-05-22T23:31:14.060Z,19.57
2023-05-22T23:34:15.874Z,19.55
2023-05-22T23:37:17.431Z,19.64
2023-05-22T23:40:18.874Z,19.67
2023-05-22T23:43:20.946Z,19.63
2023-05-22T23:46:24.144Z,19.65
2023-05-22T23:49:26.318Z,19.58
2023-05-22T23:52:27.832Z,19.55
2023-05-22T23:55:29.314Z,19.52
2023-05-22T23:58:31.949Z,19.52
